Time;durP1;ratioP1;P1;durP2;ratioP2;P2;SDS_P1;SDS_P2;PMS_P1;PMS_P2;Temp;Humidity;BMP_temperature;BMP_pressure;BME280_temperature;BME280_humidity;BME280_pressure;Samples;Min_cycle;Max_cycle;Signal;HPM_P1;HPM_P2
2021/11/24 00:00:46;;;;;;;23.02;15.98;;;;;;;8.05;73.05;97147.81;5095057;28;20020;-64
2021/11/24 00:03:12;;;;;;;22.00;13.38;;;;;;;8.03;73.26;97146.97;5095049;28;20052;-69
2021/11/24 00:05:37;;;;;;;15.00;11.52;;;;;;;8.03;73.47;97146.97;5095081;28;20027;-65
2021/11/24 00:08:04;;;;;;;19.50;12.32;;;;;;;7.99;73.67;97148.78;5094073;28;20479;-64
2021/11/24 00:10:32;;;;;;;15.00;11.43;;;;;;;7.99;73.65;97151.41;5094924;28;20116;-67
2021/11/24 00:12:58;;;;;;;31.08;18.75;;;;;;;7.96;73.58;97162.75;5094821;28;20462;-64
2021/11/24 00:15:23;;;;;;;35.88;18.77;;;;;;;7.95;73.62;97160.16;5094800;28;20386;-65
2021/11/24 00:17:49;;;;;;;27.30;17.17;;;;;;;7.97;73.37;97158.38;5094773;28;20029;-63
2021/11/24 00:20:15;;;;;;;44.42;23.73;;;;;;;7.98;73.59;97162.72;5094497;28;20097;-69
2021/11/24 00:22:41;;;;;;;33.85;19.98;;;;;;;7.98;73.38;97165.31;5094732;28;20428;-67
2021/11/24 00:25:07;;;;;;;24.98;15.88;;;;;;;8.04;73.34;97157.38;5094670;28;20065;-70
2021/11/24 00:27:34;;;;;;;24.83;14.80;;;;;;;8.06;73.13;97158.22;5093280;28;20115;-66
2021/11/24 00:29:59;;;;;;;22.73;16.02;;;;;;;8.06;73.39;97165.16;5094536;28;20023;-67
2021/11/24 00:32:25;;;;;;;19.42;13.27;;;;;;;8.05;73.48;97164.31;5094347;28;20028;-66
2021/11/24 00:34:50;;;;;;;17.02;12.93;;;;;;;8.05;73.28;97169.53;5094353;28;20028;-67
2021/11/24 00:37:16;;;;;;;19.70;13.35;;;;;;;8.05;73.35;97161.72;5094361;28;20030;-67
2021/11/24 00:39:42;;;;;;;21.15;13.88;;;;;;;8.05;73.12;97164.31;5094310;28;20028;-67
2021/11/24 00:42:07;;;;;;;20.67;13.45;;;;;;;8.03;72.94;97166.09;5094348;28;20024;-65
2021/11/24 00:44:33;;;;;;;18.15;11.93;;;;;;;8.05;73.21;97160.84;5094378;28;20028;-65
2021/11/24 00:46:59;;;;;;;18.92;12.90;;;;;;;8.06;73.07;97159.94;5094216;28;20052;-66
2021/11/24 00:49:25;;;;;;;18.48;11.18;;;;;;;8.04;72.98;97161.75;5094195;28;20085;-69
2021/11/24 00:51:50;;;;;;;18.08;12.60;;;;;;;8.03;72.97;97158.28;5094007;28;20119;-65
2021/11/24 00:54:16;;;;;;;15.38;11.43;;;;;;;7.99;73.21;97160.94;5094229;28;20055;-66
2021/11/24 00:56:43;;;;;;;14.70;10.60;;;;;;;7.93;73.24;97168.00;5094029;28;20061;-65
2021/11/24 00:59:08;;;;;;;14.52;9.93;;;;;;;7.91;73.29;97164.56;5093910;28;20028;-69
2021/11/24 01:01:34;;;;;;;14.52;10.32;;;;;;;7.92;73.31;97163.66;5094029;28;20022;-64
2021/11/24 01:04:00;;;;;;;17.35;11.93;;;;;;;7.92;73.34;97158.44;5093894;28;20020;-64
2021/11/24 01:06:26;;;;;;;13.60;10.85;;;;;;;7.92;73.33;97168.03;5093902;28;20077;-69
2021/11/24 01:08:51;;;;;;;17.38;10.77;;;;;;;7.92;73.28;97158.44;5093911;28;20436;-64
2021/11/24 01:11:17;;;;;;;15.15;11.25;;;;;;;7.91;73.36;97155.88;5093641;28;20028;-65
2021/11/24 01:13:44;;;;;;;15.73;10.02;;;;;;;7.90;73.17;97160.25;5093651;28;20057;-67
2021/11/24 01:16:10;;;;;;;14.70;10.80;;;;;;;7.87;73.16;97156.81;5093633;28;20027;-69
2021/11/24 01:18:36;;;;;;;17.48;10.18;;;;;;;7.83;73.35;97153.41;5093543;28;20031;-65
2021/11/24 01:21:02;;;;;;;13.20;10.43;;;;;;;7.81;73.63;97158.66;5093502;28;20048;-67
2021/11/24 01:23:27;;;;;;;17.92;10.55;;;;;;;7.81;73.68;97160.38;5093543;28;20482;-63
2021/11/24 01:25:53;;;;;;;15.40;10.45;;;;;;;7.79;73.69;97156.94;5093532;28;20073;-65
2021/11/24 01:28:19;;;;;;;12.77;9.10;;;;;;;7.78;73.45;97155.22;5093479;28;20478;-66
2021/11/24 01:30:45;;;;;;;13.63;9.07;;;;;;;7.78;73.03;97155.22;5093327;28;20027;-64
2021/11/24 01:33:11;;;;;;;13.15;9.88;;;;;;;7.76;73.54;97155.25;5093401;28;20041;-67
2021/11/24 01:35:37;;;;;;;16.35;9.65;;;;;;;7.76;73.22;97160.47;5093394;28;20016;-69
2021/11/24 01:38:02;;;;;;;14.95;9.00;;;;;;;7.74;73.60;97158.78;5093324;28;20023;-69
2021/11/24 01:40:28;;;;;;;15.27;10.20;;;;;;;7.70;73.37;97158.81;5093250;28;20488;-64
2021/11/24 01:42:54;;;;;;;12.27;9.32;;;;;;;7.70;73.45;97161.44;5093282;28;20028;-65
2021/11/24 01:45:21;;;;;;;14.13;10.13;;;;;;;7.69;73.55;97159.72;5093280;28;20016;-69
2021/11/24 01:47:47;;;;;;;14.68;10.25;;;;;;;7.71;73.80;97157.09;5093295;28;20020;-62
2021/11/24 01:50:13;;;;;;;15.15;9.75;;;;;;;7.71;73.74;97154.50;5093206;28;20024;-66
2021/11/24 01:52:39;;;;;;;16.35;10.90;;;;;;;7.68;73.67;97154.53;5093215;28;20028;-67
2021/11/24 01:55:07;;;;;;;14.60;10.75;;;;;;;7.54;73.70;97162.56;5093156;28;20543;-66
2021/11/24 01:57:33;;;;;;;15.10;10.73;;;;;;;7.58;74.18;97159.00;5093134;28;20024;-67
2021/11/24 01:59:59;;;;;;;13.35;9.38;;;;;;;7.59;74.20;97165.97;5093126;28;20056;-63
2021/11/24 02:02:26;;;;;;;12.40;9.55;;;;;;;7.56;74.17;97159.03;5092999;28;20021;-66
2021/11/24 02:04:53;;;;;;;12.55;9.45;;;;;;;7.48;74.63;97160.03;5092991;28;20028;-65
2021/11/24 02:07:18;;;;;;;12.30;9.25;;;;;;;7.35;74.82;97160.25;5093086;28;20028;-66
2021/11/24 02:09:44;;;;;;;13.68;10.32;;;;;;;7.40;74.80;97162.75;5091769;28;20133;-70
2021/11/24 02:12:15;;;;;;;15.95;10.60;;;;;;;7.42;74.82;97156.69;5092937;28;20491;-66
2021/11/24 02:14:43;;;;;;;14.13;10.35;;;;;;;7.40;74.63;97162.75;5093155;28;20047;-65
2021/11/24 02:17:10;;;;;;;17.52;11.80;;;;;;;7.41;75.00;97165.34;5093038;28;20028;-67
2021/11/24 02:19:36;;;;;;;15.55;12.27;;;;;;;7.39;75.05;97166.25;5092681;28;20023;-67
2021/11/24 02:22:03;;;;;;;17.02;11.95;;;;;;;7.41;75.38;97173.16;5092964;28;20028;-65
2021/11/24 02:24:33;;;;;;;14.77;11.65;;;;;;;7.42;75.69;97172.28;5092781;28;20386;-63
2021/11/24 02:27:01;;;;;;;19.10;13.07;;;;;;;7.39;75.53;97163.66;5092988;28;20031;-67
2021/11/24 02:29:27;;;;;;;17.83;12.35;;;;;;;7.40;76.00;97162.75;5092838;28;20031;-67
2021/11/24 02:31:54;;;;;;;17.77;13.50;;;;;;;7.41;75.76;97172.31;5096605;28;20024;-68
2021/11/24 02:34:21;;;;;;;21.83;14.45;;;;;;;7.35;76.10;97164.59;5096822;28;20500;-67
2021/11/24 02:36:47;;;;;;;18.27;12.80;;;;;;;7.37;75.89;97161.06;5096699;28;20385;-65
2021/11/24 02:39:13;;;;;;;16.50;13.07;;;;;;;7.31;76.24;97171.56;5096790;28;20024;-68
2021/11/24 02:41:40;;;;;;;16.65;13.27;;;;;;;7.31;75.89;97175.06;5096714;28;20438;-63
2021/11/24 02:44:19;;;;;;;18.65;12.82;;;;;;;7.35;75.83;97177.59;5096722;28;20051;-68
2021/11/24 02:46:45;;;;;;;18.13;12.93;;;;;;;7.36;75.95;97180.19;5096679;28;20035;-64
2021/11/24 02:49:11;;;;;;;20.58;13.82;;;;;;;7.36;75.81;97177.59;5096468;28;20023;-64
2021/11/24 02:51:38;;;;;;;17.45;12.40;;;;;;;7.37;75.97;97178.47;5096432;28;20020;-67
2021/11/24 02:54:04;;;;;;;18.90;12.73;;;;;;;7.35;75.78;97178.47;5096433;28;20497;-67
2021/11/24 02:56:30;;;;;;;16.42;13.23;;;;;;;7.40;75.67;97180.97;5096404;28;20012;-62
2021/11/24 02:58:55;;;;;;;17.58;13.07;;;;;;;7.42;75.68;97184.44;5096256;28;20024;-64
2021/11/24 03:01:21;;;;;;;20.55;13.85;;;;;;;7.39;75.75;97182.75;5096240;28;20034;-67
2021/11/24 03:03:47;;;;;;;18.60;12.75;;;;;;;7.37;75.60;97181.91;5096213;28;20033;-64
2021/11/24 03:06:12;;;;;;;18.73;13.25;;;;;;;7.38;75.59;97181.03;5096155;28;20028;-62
2021/11/24 03:08:38;;;;;;;16.60;12.85;;;;;;;7.25;75.82;97166.50;5096211;28;20041;-66
2021/11/24 03:11:04;;;;;;;16.77;12.88;;;;;;;7.38;75.61;97185.38;5096110;28;20020;-65
2021/11/24 03:13:29;;;;;;;17.25;13.15;;;;;;;7.38;75.51;97190.56;5096072;28;20474;-68
2021/11/24 03:15:55;;;;;;;18.10;11.90;;;;;;;7.39;75.50;97189.69;5095982;28;20069;-68
2021/11/24 03:18:20;;;;;;;20.80;13.65;;;;;;;7.37;75.47;97189.72;5095930;28;20032;-63
2021/11/24 03:20:46;;;;;;;18.88;13.70;;;;;;;7.39;75.36;97195.75;5095777;28;20040;-65
2021/11/24 03:23:12;;;;;;;16.30;12.85;;;;;;;7.38;75.44;97191.44;5095970;28;20032;-66
2021/11/24 03:25:37;;;;;;;17.90;13.63;;;;;;;7.37;75.53;97200.13;5095825;28;20032;-68
2021/11/24 03:28:04;;;;;;;18.17;13.40;;;;;;;7.36;75.52;97197.53;5095818;28;20051;-68
2021/11/24 03:30:31;;;;;;;19.80;13.48;;;;;;;7.36;75.57;97198.41;5095706;28;20070;-66
2021/11/24 03:32:58;;;;;;;19.35;14.05;;;;;;;7.33;75.81;97204.53;5095620;28;20028;-68
2021/11/24 03:35:25;;;;;;;19.40;14.15;;;;;;;7.30;75.99;97196.75;5095609;28;20508;-68
2021/11/24 03:37:52;;;;;;;19.77;13.40;;;;;;;7.32;75.96;97205.38;5095479;28;20111;-64
2021/11/24 03:40:20;;;;;;;20.20;14.68;;;;;;;7.30;76.01;97203.69;5095619;28;20020;-64
2021/11/24 03:42:47;;;;;;;17.08;12.65;;;;;;;7.28;76.03;97213.25;5095487;28;20540;-63
2021/11/24 03:45:14;;;;;;;16.35;11.65;;;;;;;7.25;75.83;97211.56;5095362;28;20028;-68
2021/11/24 03:47:41;;;;;;;17.13;12.68;;;;;;;7.26;75.70;97215.03;5095286;28;20028;-67
2021/11/24 03:50:08;;;;;;;16.83;12.13;;;;;;;7.27;75.85;97209.81;5095276;28;20032;-63
2021/11/24 03:52:34;;;;;;;14.00;11.32;;;;;;;7.29;75.55;97210.63;5095169;28;20020;-65
2021/11/24 03:54:59;;;;;;;13.75;11.13;;;;;;;7.26;75.56;97223.72;5095265;28;20478;-67
2021/11/24 03:57:25;;;;;;;15.57;10.40;;;;;;;7.26;75.45;97225.44;5095309;28;20099;-69
2021/11/24 03:59:50;;;;;;;13.50;9.98;;;;;;;7.23;75.75;97228.09;5095201;28;20445;-65
2021/11/24 04:02:16;;;;;;;15.77;11.25;;;;;;;7.22;75.86;97232.44;5095075;28;20023;-65
2021/11/24 04:04:42;;;;;;;19.52;11.48;;;;;;;7.24;75.74;97232.41;5095149;28;20039;-66
2021/11/24 04:07:07;;;;;;;17.52;12.80;;;;;;;7.22;75.69;97237.63;5095030;28;20027;-66
2021/11/24 04:09:33;;;;;;;14.88;11.27;;;;;;;7.23;75.92;97243.72;5094918;28;20030;-66
2021/11/24 04:11:58;;;;;;;26.42;19.02;;;;;;;7.14;76.07;97239.50;5094805;28;20031;-66
2021/11/24 04:14:24;;;;;;;27.25;19.92;;;;;;;7.03;76.64;97243.09;5094844;28;20016;-63
2021/11/24 04:16:50;;;;;;;31.48;19.88;;;;;;;6.99;76.98;97245.75;5094760;28;20074;-68
2021/11/24 04:19:15;;;;;;;26.88;20.00;;;;;;;6.99;76.79;97249.22;5094725;28;20055;-67
2021/11/24 04:21:41;;;;;;;26.42;19.27;;;;;;;7.02;77.12;97250.91;5094635;28;20048;-64
2021/11/24 04:24:06;;;;;;;33.28;22.88;;;;;;;7.01;76.77;97255.25;5094638;28;20020;-65
2021/11/24 04:26:32;;;;;;;33.47;24.05;;;;;;;7.00;77.02;97263.94;5094574;28;20028;-69
2021/11/24 04:28:57;;;;;;;37.20;25.83;;;;;;;6.95;77.27;97266.59;5094510;28;20020;-65
2021/11/24 04:31:23;;;;;;;38.47;25.13;;;;;;;6.75;78.09;97263.34;5094573;28;20041;-65
2021/11/24 04:33:49;;;;;;;35.17;23.73;;;;;;;6.61;78.99;97272.16;5094567;28;20028;-63
2021/11/24 04:36:14;;;;;;;30.90;21.73;;;;;;;6.62;78.62;97275.63;5093243;28;20080;-65
2021/11/24 04:38:40;;;;;;;29.20;20.88;;;;;;;6.57;78.46;97275.69;5094348;28;20028;-63
2021/11/24 04:41:06;;;;;;;23.48;16.58;;;;;;;6.53;78.04;97279.19;5094360;28;20035;-66
2021/11/24 04:43:36;;;;;;;27.77;18.33;;;;;;;6.48;77.99;97276.63;5094303;28;20031;-66
2021/11/24 04:46:02;;;;;;;23.00;17.20;;;;;;;6.54;77.80;97276.56;5094309;28;20059;-66
2021/11/24 04:48:28;;;;;;;24.88;16.98;;;;;;;6.57;77.74;97279.13;5094283;28;20117;-67
2021/11/24 04:50:54;;;;;;;27.25;18.50;;;;;;;6.61;77.72;97274.78;5094212;28;20462;-66
2021/11/24 04:53:20;;;;;;;28.48;19.33;;;;;;;6.68;77.77;97285.94;5092283;28;20424;-63
2021/11/24 04:55:46;;;;;;;25.30;17.02;;;;;;;6.72;77.58;97285.06;5093975;28;20459;-65
2021/11/24 04:58:12;;;;;;;22.13;14.55;;;;;;;6.73;76.72;97291.97;5094166;28;20024;-62
2021/11/24 05:00:38;;;;;;;16.27;11.02;;;;;;;6.67;74.60;97294.63;5093960;28;20032;-67
2021/11/24 05:03:04;;;;;;;14.57;10.48;;;;;;;6.62;74.52;97296.44;5093982;28;20031;-63
2021/11/24 05:05:32;;;;;;;15.18;10.02;;;;;;;6.62;74.37;97294.69;5093855;28;20493;-67
2021/11/24 05:07:58;;;;;;;18.35;9.88;;;;;;;6.60;74.09;97298.19;5093888;28;20547;-66
2021/11/24 05:10:24;;;;;;;15.23;10.05;;;;;;;6.53;73.90;97302.59;5093813;28;20035;-66
2021/11/24 05:12:50;;;;;;;13.68;9.43;;;;;;;6.42;74.19;97306.13;5093723;28;20035;-67
2021/11/24 05:15:26;;;;;;;14.95;9.23;;;;;;;6.35;74.54;97303.63;5093706;28;20469;-67
2021/11/24 05:17:57;;;;;;;15.25;9.90;;;;;;;6.28;74.97;97308.88;5093759;28;20028;-64
2021/11/24 05:20:25;;;;;;;;;;;;;;;6.30;75.09;97319.25;5093900;28;20070;-63
2021/11/24 05:22:52;;;;;;;15.40;9.73;;;;;;;6.25;74.80;97311.50;5093651;28;19994;-63
2021/11/24 05:25:17;;;;;;;14.73;8.77;;;;;;;6.25;74.38;97319.28;5093651;28;20028;-64
2021/11/24 05:27:43;;;;;;;12.52;9.48;;;;;;;6.29;74.63;97320.97;5093424;28;20081;-68
2021/11/24 05:30:10;;;;;;;14.98;10.32;;;;;;;6.23;74.95;97322.78;5093510;28;20024;-62
2021/11/24 05:32:36;;;;;;;14.02;9.23;;;;;;;6.16;74.82;97319.34;5093354;28;20103;-62
2021/11/24 05:35:03;;;;;;;13.15;9.20;;;;;;;6.12;74.89;97323.72;5093396;28;20020;-65
2021/11/24 05:37:29;;;;;;;13.43;9.30;;;;;;;6.11;74.34;97327.19;5093547;28;20070;-68
2021/11/24 05:39:54;;;;;;;12.02;8.73;;;;;;;6.05;74.83;97327.25;5093430;28;20044;-64
2021/11/24 05:42:20;;;;;;;11.93;8.55;;;;;;;6.00;74.06;97341.97;5093358;28;20466;-64
2021/11/24 05:44:48;;;;;;;11.95;8.05;;;;;;;5.97;73.95;97337.66;5093288;28;20027;-64
2021/11/24 05:49:58;;;;;;;12.60;8.35;;;;;;;5.98;73.85;97346.28;5093654;28;20038;-65
2021/11/24 05:52:24;;;;;;;12.60;8.02;;;;;;;5.99;74.33;97342.84;5093121;28;20016;-62
2021/11/24 05:54:49;;;;;;;11.38;6.90;;;;;;;5.99;72.82;97354.06;5093223;28;20020;-63
2021/11/24 05:57:16;;;;;;;11.82;7.32;;;;;;;5.96;72.56;97353.25;5093348;28;20420;-67
2021/11/24 05:59:42;;;;;;;7.82;6.45;;;;;;;5.97;72.69;97345.44;5093165;28;20529;-65
2021/11/24 06:02:09;;;;;;;11.23;7.07;;;;;;;6.01;72.48;97349.75;5093125;28;20020;-66
2021/11/24 06:04:35;;;;;;;11.25;7.63;;;;;;;6.06;72.18;97360.13;5093190;28;20024;-64
2021/11/24 06:07:01;;;;;;;12.77;6.88;;;;;;;6.11;72.59;97362.72;5097373;28;20031;-63
2021/11/24 06:09:28;;;;;;;10.52;7.13;;;;;;;6.17;72.57;97360.06;5096059;28;20024;-65
2021/11/24 06:11:53;;;;;;;9.60;6.82;;;;;;;6.24;71.98;97366.94;5097192;28;20028;-67
2021/11/24 06:14:19;;;;;;;9.68;6.88;;;;;;;6.27;71.38;97359.13;5097248;28;20351;-64
2021/11/24 06:16:46;;;;;;;10.27;7.22;;;;;;;6.28;71.60;97371.25;5097089;28;20027;-64
2021/11/24 06:19:15;;;;;;;9.85;7.03;;;;;;;6.28;71.46;97366.03;5097006;28;20138;-67
2021/11/24 06:21:41;;;;;;;8.43;6.95;;;;;;;6.34;71.71;97372.03;5096854;28;20048;-67
2021/11/24 06:24:07;;;;;;;9.57;6.13;;;;;;;6.28;70.82;97367.75;5097093;28;20059;-63
2021/11/24 06:26:37;;;;;;;10.18;6.40;;;;;;;6.26;70.74;97380.78;5097010;28;20028;-65
2021/11/24 06:29:03;;;;;;;8.05;5.97;;;;;;;6.32;70.49;97382.44;5096885;28;20470;-64
2021/11/24 06:31:29;;;;;;;9.65;6.18;;;;;;;6.38;70.18;97381.56;5096848;28;20056;-69
2021/11/24 06:33:56;;;;;;;8.15;5.65;;;;;;;6.31;70.70;97381.59;5096739;28;20051;-66
2021/11/24 06:36:24;;;;;;;8.35;6.03;;;;;;;6.29;70.37;97380.75;5096804;28;20020;-67
2021/11/24 06:38:52;;;;;;;8.93;5.95;;;;;;;6.25;70.45;97385.97;5096786;28;20028;-68
2021/11/24 06:41:18;;;;;;;10.52;6.03;;;;;;;6.24;70.86;97386.84;5096654;28;20110;-64
2021/11/24 06:43:44;;;;;;;9.50;6.65;;;;;;;6.24;71.11;97385.13;5096557;28;20024;-67
2021/11/24 06:46:11;;;;;;;9.68;6.35;;;;;;;6.34;71.15;97393.72;5096557;28;20381;-67
2021/11/24 06:48:37;;;;;;;7.85;5.47;;;;;;;6.39;70.56;97399.75;5096605;28;20021;-65
2021/11/24 06:51:04;;;;;;;8.90;5.93;;;;;;;6.35;70.20;97397.19;5096443;28;20116;-64
2021/11/24 06:53:30;;;;;;;9.02;5.95;;;;;;;6.39;69.17;97391.97;5096381;28;20087;-68
2021/11/24 06:55:55;;;;;;;7.55;5.28;;;;;;;6.35;68.77;97400.63;5096409;28;20482;-62
2021/11/24 06:58:22;;;;;;;8.10;5.50;;;;;;;6.39;69.13;97398.88;5096353;28;20458;-66
2021/11/24 07:00:49;;;;;;;8.48;5.13;;;;;;;6.35;68.62;97402.38;5096369;28;20466;-65
2021/11/24 07:03:16;;;;;;;7.82;5.18;;;;;;;6.27;68.75;97405.03;5096166;28;20043;-64
2021/11/24 07:05:42;;;;;;;6.47;4.93;;;;;;;6.38;68.42;97411.00;5096095;28;20367;-62
2021/11/24 07:08:09;;;;;;;8.63;5.78;;;;;;;6.32;67.95;97409.31;5096179;28;20069;-66
2021/11/24 07:10:35;;;;;;;7.30;4.82;;;;;;;6.28;68.05;97407.63;5096288;28;20024;-66
2021/11/24 07:13:04;;;;;;;5.80;4.35;;;;;;;6.37;67.82;97413.63;5096029;28;20485;-67
2021/11/24 07:15:30;;;;;;;5.50;4.20;;;;;;;6.43;67.73;97411.84;5095577;28;20020;-65
2021/11/24 07:17:56;;;;;;;5.95;4.35;;;;;;;6.57;67.15;97409.13;5095975;28;20394;-66
2021/11/24 07:20:22;;;;;;;6.07;4.50;;;;;;;6.73;65.60;97415.94;5094415;28;20052;-67
2021/11/24 07:22:47;;;;;;;7.35;4.25;;;;;;;6.77;65.60;97421.09;5095875;28;20020;-61
2021/11/24 07:25:14;;;;;;;5.78;4.15;;;;;;;6.97;65.39;97419.19;5095894;28;20473;-64
2021/11/24 07:27:40;;;;;;;9.00;4.20;;;;;;;7.05;64.33;97420.84;5095928;28;20487;-67
2021/11/24 07:30:06;;;;;;;6.32;4.05;;;;;;;7.15;63.37;97421.63;5095785;28;20047;-65
2021/11/24 07:32:32;;;;;;;5.88;4.18;;;;;;;7.27;63.81;97423.25;5095657;28;20043;-61
2021/11/24 07:35:00;;;;;;;5.97;3.67;;;;;;;7.41;62.93;97419.63;5095607;28;20028;-66
2021/11/24 07:37:26;;;;;;;5.50;3.92;;;;;;;7.51;62.81;97421.25;5095598;28;20036;-63
2021/11/24 07:39:52;;;;;;;3.90;3.22;;;;;;;7.79;62.22;97422.63;5095646;28;20628;-64
2021/11/24 07:42:17;;;;;;;8.55;2.67;;;;;;;8.17;59.92;97429.09;5095567;28;20188;-67
2021/11/24 07:44:43;;;;;;;4.53;3.67;;;;;;;8.97;57.03;97422.66;5095552;28;20478;-66
2021/11/24 07:47:09;;;;;;;3.70;3.17;;;;;;;9.62;55.66;97423.19;5095494;28;20039;-66
2021/11/24 07:49:34;;;;;;;4.13;3.17;;;;;;;10.32;53.36;97423.47;5095380;28;20397;-65
2021/11/24 07:52:00;;;;;;;3.80;3.08;;;;;;;10.45;51.42;97422.31;5095305;28;20031;-63
2021/11/24 07:54:27;;;;;;;4.03;3.15;;;;;;;10.34;52.50;97429.53;5095214;28;20048;-64
2021/11/24 07:56:52;;;;;;;3.58;3.17;;;;;;;10.08;51.94;97429.22;5095279;28;20032;-66
2021/11/24 07:59:18;;;;;;;4.65;3.42;;;;;;;9.76;53.16;97430.78;5095161;28;20028;-67
2021/11/24 08:01:44;;;;;;;4.50;3.10;;;;;;;9.46;53.75;97433.09;5095203;28;20149;-66
2021/11/24 08:04:10;;;;;;;3.72;3.10;;;;;;;9.29;53.99;97436.88;5095208;28;20102;-66
2021/11/24 08:06:36;;;;;;;6.32;2.97;;;;;;;9.03;55.17;97427.75;5094956;28;20051;-66
2021/11/24 08:09:03;;;;;;;4.30;3.38;;;;;;;8.97;55.20;97443.53;5095073;28;20028;-61
2021/11/24 08:11:28;;;;;;;4.05;3.30;;;;;;;9.02;54.05;97438.22;5094943;28;20067;-64
2021/11/24 08:13:54;;;;;;;3.60;3.25;;;;;;;8.92;54.04;97433.19;5094997;28;20039;-68
2021/11/24 08:16:20;;;;;;;3.95;3.33;;;;;;;8.71;54.83;97439.63;5094870;28;20016;-66
2021/11/24 08:18:46;;;;;;;4.90;2.97;;;;;;;8.46;55.47;97437.38;5094809;28;20028;-67
2021/11/24 08:21:12;;;;;;;4.78;4.05;;;;;;;8.39;56.44;97441.81;5094672;28;20044;-66
2021/11/24 08:23:37;;;;;;;5.60;3.90;;;;;;;8.29;54.92;97446.31;5094822;28;20027;-63
2021/11/24 08:26:04;;;;;;;4.55;3.65;;;;;;;8.19;55.42;97442.94;5094798;28;20531;-67
2021/11/24 08:28:30;;;;;;;4.78;3.55;;;;;;;8.21;55.40;97448.13;5093701;28;20108;-64
2021/11/24 08:30:55;;;;;;;6.30;4.05;;;;;;;8.20;54.87;97441.22;5094590;28;20028;-65
2021/11/24 08:33:21;;;;;;;6.10;3.75;;;;;;;8.12;54.93;97451.75;5094533;28;20081;-66
2021/11/24 08:35:48;;;;;;;4.72;3.47;;;;;;;8.09;55.07;97444.84;5094509;28;20016;-64
2021/11/24 08:38:15;;;;;;;5.35;3.70;;;;;;;8.11;54.58;97438.72;5094515;28;20046;-63
2021/11/24 08:40:41;;;;;;;5.13;3.75;;;;;;;8.05;54.44;97435.34;5094375;28;20106;-67
2021/11/24 08:43:07;;;;;;;4.28;3.03;;;;;;;8.03;54.21;97436.22;5092976;28;20116;-66
2021/11/24 08:45:34;;;;;;;5.35;4.00;;;;;;;7.95;54.57;97439.78;5094325;28;20107;-68
2021/11/24 08:48:02;;;;;;;4.65;3.88;;;;;;;7.81;55.45;97433.91;5094326;28;20039;-63
2021/11/24 08:50:29;;;;;;;10.25;3.83;;;;;;;7.84;54.82;97442.56;5094167;28;20028;-66
2021/11/24 08:52:54;;;;;;;4.28;3.22;;;;;;;7.83;55.15;97437.38;5094112;28;20035;-65
2021/11/24 08:55:21;;;;;;;5.00;3.70;;;;;;;7.78;54.93;97434.81;5094028;28;20080;-65
2021/11/24 08:57:48;;;;;;;3.95;3.55;;;;;;;7.67;55.43;97436.66;5094067;28;20028;-65
2021/11/24 09:00:16;;;;;;;4.97;3.90;;;;;;;7.73;55.42;97434.00;5094058;28;20028;-66
2021/11/24 09:02:42;;;;;;;4.35;3.45;;;;;;;7.76;55.30;97428.75;5094115;28;20024;-65
2021/11/24 09:05:09;;;;;;;3.90;3.40;;;;;;;7.82;55.74;97431.28;5093943;28;20024;-66
2021/11/24 09:07:35;;;;;;;4.57;3.70;;;;;;;7.84;56.44;97420.84;5093842;28;20028;-64
2021/11/24 09:10:03;;;;;;;5.38;3.50;;;;;;;8.03;55.08;97429.28;5093839;28;20020;-68
2021/11/24 09:12:28;;;;;;;3.83;3.42;;;;;;;8.11;55.09;97430.91;5093750;28;20144;-67
2021/11/24 09:14:54;;;;;;;3.90;3.50;;;;;;;8.04;55.13;97427.53;5093799;28;20566;-68
2021/11/24 09:17:21;;;;;;;5.90;3.42;;;;;;;8.08;55.21;97439.63;5093835;28;20036;-63
2021/11/24 09:19:47;;;;;;;6.40;3.72;;;;;;;7.94;53.97;97434.59;5093397;28;20046;-61
2021/11/24 09:22:13;;;;;;;3.72;3.22;;;;;;;7.78;53.01;97421.78;5093615;28;20036;-67
2021/11/24 09:24:40;;;;;;;6.07;3.10;;;;;;;7.65;53.24;97423.66;5093514;28;20028;-61
2021/11/24 09:27:16;;;;;;;7.15;2.95;;;;;;;7.58;54.55;97419.41;5093519;28;20024;-65
2021/11/24 09:29:43;;;;;;;3.13;2.78;;;;;;;7.71;53.45;97426.19;5093645;28;20451;-65
2021/11/24 09:32:10;;;;;;;3.25;2.90;;;;;;;7.71;52.67;97428.81;5093504;28;20028;-67
2021/11/24 09:34:36;;;;;;;3.88;2.80;;;;;;;7.75;51.86;97426.16;5092257;28;20133;-64
2021/11/24 09:37:02;;;;;;;4.30;2.60;;;;;;;7.79;52.14;97422.63;5093527;28;20054;-66
2021/11/24 09:39:27;;;;;;;3.25;2.80;;;;;;;7.73;51.21;97415.75;5093345;28;20024;-62
2021/11/24 09:41:57;;;;;;;4.45;3.03;;;;;;;7.81;52.42;97421.75;5093385;28;20462;-65
2021/11/24 09:44:24;;;;;;;4.47;2.85;;;;;;;7.82;51.27;97417.38;5093481;28;20465;-63
2021/11/24 09:46:51;;;;;;;4.30;2.92;;;;;;;7.88;51.97;97413.84;5093397;28;20432;-63
2021/11/24 09:49:18;;;;;;;2.83;2.35;;;;;;;7.83;50.86;97421.75;5093254;28;20028;-63
2021/11/24 09:51:45;;;;;;;2.38;2.15;;;;;;;7.75;50.90;97420.94;5093179;28;20020;-66
2021/11/24 09:54:13;;;;;;;3.10;2.40;;;;;;;7.63;51.77;97407.22;5093227;28;20032;-63
2021/11/24 09:56:41;;;;;;;3.13;2.38;;;;;;;7.66;51.04;97416.72;5093177;28;20019;-64
2021/11/24 09:59:09;;;;;;;3.30;2.78;;;;;;;7.56;51.26;97413.38;5093189;28;20474;-68
2021/11/24 10:01:38;;;;;;;3.35;2.80;;;;;;;7.46;51.30;97415.22;5093202;28;20117;-66
2021/11/24 10:04:05;;;;;;;5.07;3.00;;;;;;;7.57;51.54;97413.38;5093228;28;20030;-66
2021/11/24 10:06:34;;;;;;;2.85;2.60;;;;;;;7.59;52.01;97408.13;5093078;28;20016;-64
2021/11/24 10:09:01;;;;;;;3.08;2.72;;;;;;;7.66;52.56;97411.50;5093056;28;20032;-62
2021/11/24 10:11:27;;;;;;;3.22;2.72;;;;;;;7.76;50.91;97414.84;5092965;28;20108;-64
2021/11/24 10:13:53;;;;;;;2.95;2.47;;;;;;;7.73;51.84;97407.94;5093209;28;20103;-65
2021/11/24 10:16:28;;;;;;;3.28;2.80;;;;;;;7.79;51.22;97401.78;5093133;28;20020;-66
2021/11/24 10:19:08;;;;;;;3.60;2.90;;;;;;;7.84;51.75;97398.28;5092979;28;20086;-67
2021/11/24 10:21:35;;;;;;;3.00;2.70;;;;;;;7.91;51.90;97399.03;5092916;28;20090;-64
2021/11/24 10:24:06;;;;;;;4.68;3.40;;;;;;;7.94;51.45;97400.72;5092920;28;20558;-64
2021/11/24 10:26:39;;;;;;;6.38;5.72;;;;;;;7.86;50.73;97395.66;5093019;28;20074;-66
2021/11/24 10:29:13;;;;;;;3.33;2.63;;;;;;;7.81;49.62;97410.47;5092890;28;20032;-67
2021/11/24 10:31:49;;;;;;;4.45;2.80;;;;;;;7.67;50.21;97395.00;5092703;28;20099;-66
2021/11/24 10:34:21;;;;;;;3.88;2.67;;;;;;;7.77;50.66;97393.16;5092843;28;20020;-62
2021/11/24 10:36:53;;;;;;;3.50;2.70;;;;;;;7.79;50.59;97391.38;5092891;28;20107;-64
2021/11/24 10:39:21;;;;;;;3.30;2.70;;;;;;;7.76;51.24;97400.09;5092801;28;20028;-65
2021/11/24 10:41:49;;;;;;;3.88;2.50;;;;;;;7.84;51.01;97382.63;5092861;28;20479;-64
2021/11/24 10:44:29;;;;;;;3.13;2.70;;;;;;;7.88;49.97;97385.19;5092694;28;20066;-64
2021/11/24 10:46:58;;;;;;;3.95;2.88;;;;;;;7.76;50.23;97391.41;5092711;28;20020;-63
2021/11/24 10:49:40;;;;;;;3.30;2.90;;;;;;;7.65;50.83;97383.75;5092764;28;20032;-62
2021/11/24 10:52:35;;;;;;;3.42;2.78;;;;;;;7.71;50.66;97383.69;5095133;28;20481;-65
2021/11/24 10:55:18;;;;;;;3.53;2.83;;;;;;;7.83;50.82;97386.09;5096566;28;20130;-62
2021/11/24 10:57:58;;;;;;;3.38;3.08;;;;;;;7.88;49.82;97385.19;5096456;28;20107;-67
2021/11/24 11:00:33;;;;;;;3.42;2.42;;;;;;;7.76;50.26;97381.88;5096385;28;20036;-68
2021/11/24 11:02:59;;;;;;;4.18;3.40;;;;;;;7.66;50.76;97377.66;5096487;28;20028;-63
2021/11/24 11:05:25;;;;;;;5.07;3.30;;;;;;;7.74;50.22;97372.34;5096316;28;20020;-67
2021/11/24 11:07:52;;;;;;;3.78;2.72;;;;;;;7.74;51.17;97373.22;5096283;28;20039;-66
2021/11/24 11:10:24;;;;;;;3.22;2.92;;;;;;;7.80;50.26;97367.91;5096161;28;20028;-65
2021/11/24 11:12:53;;;;;;;4.22;3.25;;;;;;;7.77;50.38;97370.56;5096094;28;20035;-69
2021/11/24 11:15:25;;;;;;;3.55;2.92;;;;;;;7.82;51.00;97355.72;5096151;28;20028;-63
2021/11/24 11:17:55;;;;;;;4.43;3.15;;;;;;;7.90;50.00;97360.84;5095969;28;20501;-66
2021/11/24 11:20:23;;;;;;;5.35;3.30;;;;;;;7.92;50.65;97359.06;5095827;28;20561;-65
2021/11/24 11:23:08;;;;;;;3.70;3.35;;;;;;;8.07;50.55;97354.53;5095961;28;20024;-64
2021/11/24 11:25:36;;;;;;;4.47;3.42;;;;;;;8.20;50.16;97357.81;5095944;28;20031;-64
2021/11/24 11:28:02;;;;;;;4.10;3.20;;;;;;;8.20;49.52;97355.19;5095937;28;20031;-64
2021/11/24 11:30:29;;;;;;;4.00;3.08;;;;;;;8.23;49.27;97355.16;5095806;28;20103;-63
2021/11/24 11:32:56;;;;;;;3.78;3.05;;;;;;;8.21;49.73;97357.78;5095645;28;20032;-67
2021/11/24 11:35:27;;;;;;;4.13;3.05;;;;;;;8.16;50.06;97356.13;5095699;28;20389;-65